Terminal Aerodrome Forecast
Issued by NWS Duluth, MN

Home | Current Version | Previous Version | Text Only | Print | Product List | Glossary On
Versions: 1 2 3 4 5 6 7 8 9 10 11 12 13 14 15 16 17 18 19 20 21 22 23 24 25
000
FTUS43 KDLH 190100 AAA
TAFINL
TAF AMD
KINL 190135Z 1902/1924 18004KT P6SM SCT025 OVC050
      TEMPO 1903/1905 -SN BKN025 OVC050
     FM190500 22004KT 5SM -SN OVC015
     FM191300 29010KT 6SM -SN OVC020
     FM191700 29013KT P6SM VCSH BKN030 OVC050=

USA.gov is the U.S. government's official web portal to all federal, state and local government web resources and services.